createdAt,value
2023-03-15T00:00:49.059Z,14.83
2023-03-15T00:03:16.375Z,18.60
2023-03-15T00:05:44.659Z,17.20
2023-03-15T00:08:12.046Z,20.53
2023-03-15T00:10:41.673Z,20.73
2023-03-15T00:13:09.322Z,19.40
2023-03-15T00:15:36.953Z,15.73
2023-03-15T00:18:04.279Z,19.60
2023-03-15T00:20:31.870Z,12.03
2023-03-15T00:22:59.254Z,19.30
2023-03-15T00:25:26.571Z,18.10
2023-03-15T00:27:53.851Z,13.10
2023-03-15T00:30:21.187Z,17.77
2023-03-15T00:32:48.466Z,15.57
2023-03-15T00:35:17.411Z,13.23
2023-03-15T00:37:45.111Z,18.47
2023-03-15T00:40:12.888Z,20.77
2023-03-15T00:42:40.434Z,17.70
2023-03-15T00:45:08.254Z,17.43
2023-03-15T00:47:35.634Z,11.20
2023-03-15T00:50:02.981Z,15.73
2023-03-15T00:52:31.790Z,17.57
2023-03-15T00:54:59.059Z,15.63
2023-03-15T00:57:26.622Z,15.43
2023-03-15T00:59:53.960Z,17.43
2023-03-15T01:02:22.934Z,17.77
2023-03-15T01:04:51.210Z,16.07
2023-03-15T01:07:18.482Z,12.10
2023-03-15T01:09:48.433Z,11.53
2023-03-15T01:12:15.197Z,11.83
2023-03-15T01:14:42.603Z,13.83
2023-03-15T01:17:09.975Z,17.83
2023-03-15T01:19:37.430Z,15.10
2023-03-15T01:22:04.678Z,16.17
2023-03-15T01:24:32.032Z,16.10
2023-03-15T01:26:59.360Z,15.87
2023-03-15T01:29:27.265Z,24.70
2023-03-15T01:31:54.732Z,11.93
2023-03-15T01:34:22.043Z,14.03
2023-03-15T01:36:53.077Z,26.97
2023-03-15T01:39:20.459Z,12.50
2023-03-15T01:41:47.800Z,10.80
2023-03-15T01:44:16.222Z,12.40
2023-03-15T01:46:43.640Z,18.00
2023-03-15T01:49:18.394Z,15.37
2023-03-15T01:51:50.064Z,17.30
2023-03-15T01:54:18.935Z,17.63
2023-03-15T01:56:47.913Z,14.13
2023-03-15T01:59:16.785Z,19.60
2023-03-15T02:01:45.349Z,14.60
2023-03-15T02:04:14.230Z,12.53
2023-03-15T02:06:43.861Z,11.53
2023-03-15T02:09:13.324Z,16.43
2023-03-15T02:11:41.214Z,15.57
2023-03-15T02:14:10.897Z,15.70
2023-03-15T02:16:38.551Z,18.03
2023-03-15T02:19:07.410Z,16.50
2023-03-15T02:21:36.255Z,13.20
2023-03-15T02:24:05.137Z,17.90
2023-03-15T02:26:33.995Z,17.60
2023-03-15T02:29:01.367Z,15.73
2023-03-15T02:31:29.382Z,15.53
2023-03-15T02:33:56.787Z,14.70
2023-03-15T02:36:25.661Z,13.97
2023-03-15T02:38:53.584Z,20.10
2023-03-15T02:41:28.140Z,23.10
2023-03-15T02:43:57.387Z,16.53
2023-03-15T02:46:24.950Z,18.20
2023-03-15T02:48:54.047Z,16.73
2023-03-15T02:51:23.111Z,14.80
2023-03-15T02:53:50.549Z,14.47
2023-03-15T02:56:17.946Z,16.10
2023-03-15T02:58:48.260Z,15.60
2023-03-15T03:01:16.501Z,13.60
2023-03-15T03:03:45.903Z,15.37
2023-03-15T03:06:13.898Z,20.17
2023-03-15T03:08:41.418Z,16.00
2023-03-15T03:11:08.749Z,14.90
2023-03-15T03:13:36.095Z,11.83
2023-03-15T03:16:03.413Z,12.50
2023-03-15T03:18:32.955Z,12.10
2023-03-15T03:21:00.383Z,15.20
2023-03-15T03:23:27.925Z,11.40
2023-03-15T03:25:56.327Z,12.83
2023-03-15T03:28:28.019Z,19.33
2023-03-15T03:30:55.965Z,21.17
2023-03-15T03:33:23.751Z,15.40
2023-03-15T03:35:51.117Z,15.60
2023-03-15T03:38:18.474Z,12.03
2023-03-15T03:40:46.247Z,11.47
2023-03-15T03:43:13.589Z,14.20
2023-03-15T03:45:40.927Z,14.20
2023-03-15T03:48:08.867Z,19.83
2023-03-15T03:50:36.347Z,16.13
2023-03-15T03:53:03.857Z,17.93
2023-03-15T03:55:32.814Z,16.57
2023-03-15T03:58:01.075Z,15.47
2023-03-15T04:00:28.413Z,13.33
2023-03-15T04:02:55.774Z,20.17
2023-03-15T04:05:23.223Z,18.13
2023-03-15T04:07:50.541Z,17.23
2023-03-15T04:10:17.859Z,25.00
2023-03-15T04:12:45.297Z,23.60
2023-03-15T04:15:13.138Z,17.93
2023-03-15T04:17:40.494Z,18.27
2023-03-15T04:20:09.627Z,20.47
2023-03-15T04:22:37.010Z,17.47
2023-03-15T04:25:04.350Z,16.93
2023-03-15T04:27:31.680Z,19.93
2023-03-15T04:29:59.030Z,14.90
2023-03-15T04:32:26.371Z,15.93
2023-03-15T04:34:55.322Z,19.00
2023-03-15T04:37:22.572Z,17.70
2023-03-15T04:39:51.495Z,17.70
2023-03-15T04:42:19.100Z,16.07
2023-03-15T04:44:46.739Z,21.07
2023-03-15T04:47:14.071Z,16.03
2023-03-15T04:49:41.416Z,15.60
2023-03-15T04:52:08.748Z,19.43
2023-03-15T04:54:36.107Z,21.80
2023-03-15T04:57:03.421Z,19.30
2023-03-15T04:59:31.055Z,16.10
2023-03-15T05:01:58.407Z,20.00
2023-03-15T05:04:25.843Z,15.60
2023-03-15T05:06:53.202Z,16.53
2023-03-15T05:09:21.842Z,16.97
2023-03-15T05:11:49.377Z,17.83
2023-03-15T05:14:16.724Z,16.83
2023-03-15T05:16:44.041Z,17.13
2023-03-15T05:19:11.409Z,17.60
2023-03-15T05:21:38.734Z,24.23
2023-03-15T05:24:06.098Z,20.83
2023-03-15T05:26:34.786Z,14.87
2023-03-15T05:29:02.130Z,18.93
2023-03-15T05:31:29.650Z,19.30
2023-03-15T05:33:56.956Z,15.80
2023-03-15T05:36:24.370Z,13.80
2023-03-15T05:38:51.764Z,21.77
2023-03-15T05:41:19.069Z,17.87
2023-03-15T05:43:46.401Z,13.37
2023-03-15T05:46:13.861Z,21.10
2023-03-15T05:48:41.176Z,13.67
2023-03-15T05:51:08.512Z,16.67
2023-03-15T05:53:35.866Z,15.13
2023-03-15T05:56:03.249Z,13.37
2023-03-15T05:58:30.627Z,12.80
2023-03-15T06:00:58.571Z,17.87
2023-03-15T06:03:25.884Z,14.77
2023-03-15T06:05:53.442Z,15.50
2023-03-15T06:08:20.967Z,18.70
2023-03-15T06:10:48.286Z,16.37
2023-03-15T06:13:18.118Z,17.53
2023-03-15T06:15:46.126Z,15.50
2023-03-15T06:18:13.696Z,12.73
2023-03-15T06:20:41.560Z,14.50
2023-03-15T06:23:08.824Z,15.67
2023-03-15T06:25:36.169Z,13.00
2023-03-15T06:28:03.523Z,11.30
2023-03-15T06:30:31.145Z,15.37
2023-03-15T06:32:58.598Z,13.57
2023-03-15T06:35:26.007Z,12.30
2023-03-15T06:37:53.292Z,14.23
2023-03-15T06:40:20.634Z,12.27
2023-03-15T06:42:49.955Z,12.07
2023-03-15T06:45:17.413Z,11.63
2023-03-15T06:47:44.765Z,11.70
2023-03-15T06:50:12.302Z,11.70
2023-03-15T06:52:39.718Z,12.50
2023-03-15T06:55:07.363Z,15.30
2023-03-15T06:57:34.634Z,11.47
2023-03-15T07:00:03.666Z,10.67
2023-03-15T07:02:32.651Z,12.70
2023-03-15T07:05:00.050Z,11.90
2023-03-15T07:07:27.374Z,13.77
2023-03-15T07:09:55.309Z,15.53
2023-03-15T07:12:22.648Z,12.27
2023-03-15T07:14:49.974Z,11.50
2023-03-15T07:17:18.227Z,12.67
2023-03-15T07:19:55.803Z,10.97
2023-03-15T07:22:14.599Z,14.23
2023-03-15T07:24:41.906Z,17.57
2023-03-15T07:27:10.700Z,12.43
2023-03-15T07:29:38.058Z,12.53
2023-03-15T07:32:05.804Z,15.10
2023-03-15T07:34:33.197Z,11.80
2023-03-15T07:37:00.668Z,10.10
2023-03-15T07:39:28.949Z,12.90
2023-03-15T07:41:56.286Z,12.03
2023-03-15T07:44:23.609Z,13.17
2023-03-15T07:46:51.040Z,11.00
2023-03-15T07:49:18.797Z,11.53
2023-03-15T07:51:46.132Z,12.77
2023-03-15T07:54:13.463Z,16.30
2023-03-15T07:56:40.811Z,10.07
2023-03-15T07:59:08.517Z,12.50
2023-03-15T08:01:35.900Z,9.73
2023-03-15T08:04:03.191Z,10.70
2023-03-15T08:06:31.548Z,13.20
2023-03-15T08:09:00.438Z,11.73
2023-03-15T08:11:27.854Z,11.00
2023-03-15T08:13:55.177Z,11.20
2023-03-15T08:16:22.607Z,9.13
2023-03-15T08:18:49.952Z,13.27
2023-03-15T08:21:17.283Z,12.10
2023-03-15T08:23:44.618Z,12.73
2023-03-15T08:26:11.990Z,9.63
2023-03-15T08:28:39.405Z,11.13
2023-03-15T08:31:07.697Z,13.80
2023-03-15T08:33:35.011Z,10.60
2023-03-15T08:36:02.531Z,9.70
2023-03-15T08:38:29.864Z,10.87
2023-03-15T08:40:57.669Z,9.47
2023-03-15T08:43:25.076Z,9.23
2023-03-15T08:46:00.578Z,9.57
2023-03-15T08:48:22.326Z,8.47
2023-03-15T08:50:49.685Z,9.30
2023-03-15T08:53:17.006Z,10.90
2023-03-15T08:55:44.284Z,11.30
2023-03-15T08:58:13.620Z,11.00
2023-03-15T09:00:41.020Z,10.40
2023-03-15T09:03:08.518Z,11.40
2023-03-15T09:05:36.680Z,10.63
2023-03-15T09:08:04.682Z,12.90
2023-03-15T09:10:32.013Z,9.00
2023-03-15T09:12:59.328Z,10.37
2023-03-15T09:15:26.947Z,11.73
2023-03-15T09:17:54.278Z,9.40
2023-03-15T09:20:23.214Z,9.80
2023-03-15T09:22:54.220Z,8.77
2023-03-15T09:25:21.896Z,12.77
2023-03-15T09:27:49.513Z,9.80
2023-03-15T09:30:17.030Z,9.27
2023-03-15T09:32:45.510Z,8.57
2023-03-15T09:35:14.370Z,8.37
2023-03-15T09:37:42.229Z,9.67
2023-03-15T09:40:17.358Z,11.60
2023-03-15T09:43:01.566Z,10.50
2023-03-15T09:45:30.444Z,10.90
2023-03-15T09:48:02.798Z,10.63
2023-03-15T09:50:31.672Z,8.57
2023-03-15T09:53:00.522Z,8.87
2023-03-15T09:55:28.369Z,9.63
2023-03-15T09:58:01.009Z,8.60
2023-03-15T10:00:29.873Z,10.77
2023-03-15T10:03:03.109Z,9.90
2023-03-15T10:05:32.005Z,11.97
2023-03-15T10:07:59.318Z,9.10
2023-03-15T10:10:28.149Z,9.63
2023-03-15T10:12:57.007Z,11.67
2023-03-15T10:15:31.648Z,11.03
2023-03-15T10:18:01.100Z,9.57
2023-03-15T10:20:35.753Z,10.57
2023-03-15T10:23:07.986Z,11.00
2023-03-15T10:25:36.061Z,9.40
2023-03-15T10:28:04.940Z,8.97
2023-03-15T10:30:33.661Z,8.70
2023-03-15T10:33:02.663Z,9.77
2023-03-15T10:35:31.917Z,10.40
2023-03-15T10:37:59.751Z,9.70
2023-03-15T10:40:43.573Z,9.93
2023-03-15T10:43:15.460Z,8.90
2023-03-15T10:45:42.856Z,9.80
2023-03-15T10:48:10.410Z,12.57
2023-03-15T10:50:38.818Z,9.13
2023-03-15T10:53:11.057Z,8.70
2023-03-15T10:55:39.940Z,9.87
2023-03-15T10:58:14.792Z,9.90
2023-03-15T11:00:43.683Z,9.30
2023-03-15T11:03:18.465Z,10.27
2023-03-15T11:05:47.567Z,11.60
2023-03-15T11:08:16.395Z,9.97
2023-03-15T11:10:44.335Z,8.80
2023-03-15T11:13:15.975Z,8.80
2023-03-15T11:15:44.893Z,8.80
2023-03-15T11:18:13.881Z,8.33
2023-03-15T11:20:41.349Z,11.47
2023-03-15T11:23:19.359Z,9.40
2023-03-15T11:25:46.820Z,10.40
2023-03-15T11:28:18.530Z,8.53
2023-03-15T11:30:48.461Z,10.00
2023-03-15T11:33:17.172Z,11.40
2023-03-15T11:35:48.352Z,11.33
2023-03-15T11:38:17.288Z,8.30
2023-03-15T11:40:47.930Z,8.57
2023-03-15T11:43:32.096Z,8.33
2023-03-15T11:46:01.284Z,11.23
2023-03-15T11:48:36.701Z,8.60
2023-03-15T11:51:04.687Z,9.90
2023-03-15T11:53:33.645Z,9.40
2023-03-15T11:56:02.534Z,8.00
2023-03-15T11:58:31.517Z,7.10
2023-03-15T12:01:03.684Z,7.87
2023-03-15T12:03:35.839Z,8.33
2023-03-15T12:06:13.589Z,9.13
2023-03-15T12:08:42.749Z,9.30
2023-03-15T12:11:23.680Z,10.23
2023-03-15T12:13:55.434Z,10.87
2023-03-15T12:16:23.728Z,9.73
2023-03-15T12:18:51.133Z,11.33
2023-03-15T12:21:23.048Z,7.90
2023-03-15T12:23:51.873Z,8.67
2023-03-15T12:26:29.946Z,8.60
2023-03-15T12:29:07.765Z,9.60
2023-03-15T12:31:45.305Z,9.10
2023-03-15T12:34:14.201Z,10.50
2023-03-15T12:36:43.098Z,10.97
2023-03-15T12:39:12.092Z,10.80
2023-03-15T12:41:43.598Z,8.80
2023-03-15T12:44:27.095Z,10.70
2023-03-15T12:46:55.582Z,9.00
2023-03-15T12:49:27.334Z,9.10
2023-03-15T12:51:58.199Z,11.50
2023-03-15T12:54:26.371Z,11.27
2023-03-15T12:56:58.151Z,10.80
2023-03-15T12:59:30.155Z,11.93
2023-03-15T13:01:58.563Z,9.73
2023-03-15T13:04:27.260Z,9.60
2023-03-15T13:07:12.554Z,10.40
2023-03-15T13:09:42.113Z,10.40
2023-03-15T13:12:11.332Z,9.30
2023-03-15T13:14:42.921Z,9.67
2023-03-15T13:17:28.393Z,10.50
2023-03-15T13:20:13.400Z,11.13
2023-03-15T13:22:55.008Z,10.67
2023-03-15T13:25:15.710Z,11.70
2023-03-15T13:27:47.571Z,9.97
2023-03-15T13:30:28.991Z,14.80
2023-03-15T13:33:14.382Z,15.03
2023-03-15T13:35:43.806Z,11.00
2023-03-15T13:38:15.737Z,9.30
2023-03-15T13:40:46.817Z,9.63
2023-03-15T13:43:14.127Z,9.20
2023-03-15T13:45:44.841Z,9.40
2023-03-15T13:48:13.406Z,11.13
2023-03-15T13:50:40.895Z,8.27
2023-03-15T13:53:08.374Z,8.20
2023-03-15T13:55:37.061Z,8.03
2023-03-15T13:58:08.695Z,8.53
2023-03-15T14:00:36.915Z,9.00
2023-03-15T14:03:05.858Z,11.93
2023-03-15T14:05:36.362Z,9.73
2023-03-15T14:08:05.813Z,11.47
2023-03-15T14:10:37.658Z,9.30
2023-03-15T14:13:24.805Z,11.10
2023-03-15T14:15:53.702Z,9.30
2023-03-15T14:18:24.860Z,9.73
2023-03-15T14:20:56.372Z,9.57
2023-03-15T14:23:25.495Z,9.37
2023-03-15T14:25:54.085Z,10.53
2023-03-15T14:28:22.001Z,10.13
2023-03-15T14:30:54.034Z,11.30
2023-03-15T14:33:25.630Z,9.70
2023-03-15T14:35:54.666Z,10.03
2023-03-15T14:38:23.572Z,9.93
2023-03-15T14:40:51.755Z,11.93
2023-03-15T14:43:19.458Z,9.77
2023-03-15T14:45:47.807Z,10.23
2023-03-15T14:48:23.040Z,10.63
2023-03-15T14:50:50.680Z,10.50
2023-03-15T14:53:22.000Z,10.50
2023-03-15T14:55:49.421Z,10.10
2023-03-15T14:58:20.779Z,8.67
2023-03-15T15:00:49.426Z,9.60
2023-03-15T15:03:18.309Z,11.87
2023-03-15T15:05:46.825Z,7.67
2023-03-15T15:08:15.864Z,9.07
2023-03-15T15:10:44.585Z,12.93
2023-03-15T15:13:13.487Z,8.67
2023-03-15T15:15:54.661Z,10.67
2023-03-15T15:18:09.833Z,8.93
2023-03-15T15:20:37.154Z,9.03
2023-03-15T15:23:04.463Z,8.33
2023-03-15T15:25:33.574Z,8.70
2023-03-15T15:28:01.005Z,9.23
2023-03-15T15:30:29.897Z,9.07
2023-03-15T15:32:57.312Z,9.80
2023-03-15T15:35:26.217Z,10.50
2023-03-15T15:37:53.603Z,12.10
2023-03-15T15:40:31.663Z,10.63
2023-03-15T15:42:59.480Z,9.33
2023-03-15T15:45:26.982Z,8.67
2023-03-15T15:47:54.307Z,7.83
2023-03-15T15:50:21.998Z,9.90
2023-03-15T15:52:50.436Z,10.50
2023-03-15T15:55:23.222Z,7.63
2023-03-15T15:57:51.839Z,9.70
2023-03-15T16:00:20.800Z,12.23
2023-03-15T16:02:48.142Z,14.17
2023-03-15T16:05:15.648Z,10.47
2023-03-15T16:07:42.977Z,8.90
2023-03-15T16:10:11.846Z,12.33
2023-03-15T16:12:39.209Z,10.67
2023-03-15T16:15:06.934Z,8.87
2023-03-15T16:17:34.437Z,12.97
2023-03-15T16:20:01.951Z,11.57
2023-03-15T16:22:29.287Z,9.93
2023-03-15T16:25:00.348Z,9.37
2023-03-15T16:27:28.588Z,11.47
2023-03-15T16:29:56.101Z,8.73
2023-03-15T16:32:37.247Z,10.17
2023-03-15T16:34:54.254Z,9.30
2023-03-15T16:37:26.435Z,8.27
2023-03-15T16:39:57.511Z,9.93
2023-03-15T16:42:25.606Z,9.27
2023-03-15T16:44:53.672Z,7.50
2023-03-15T16:47:21.199Z,10.13
2023-03-15T16:49:49.030Z,10.93
2023-03-15T16:52:16.903Z,9.77
2023-03-15T16:54:47.590Z,10.10
2023-03-15T16:57:16.183Z,9.43
2023-03-15T16:59:43.510Z,9.70
2023-03-15T17:02:15.467Z,9.30
2023-03-15T17:04:42.831Z,9.70
2023-03-15T17:07:11.193Z,8.73
2023-03-15T17:09:38.551Z,11.40
2023-03-15T17:12:06.526Z,12.77
2023-03-15T17:14:35.133Z,8.37
2023-03-15T17:17:02.501Z,10.10
2023-03-15T17:19:30.817Z,12.90
2023-03-15T17:21:58.091Z,9.90
2023-03-15T17:24:25.422Z,10.07
2023-03-15T17:26:52.828Z,9.60
2023-03-15T17:29:21.026Z,12.97
2023-03-15T17:31:48.497Z,9.87
2023-03-15T17:34:15.909Z,14.53
2023-03-15T17:36:43.831Z,11.63
2023-03-15T17:39:12.904Z,12.43
2023-03-15T17:41:41.804Z,8.80
2023-03-15T17:44:10.043Z,9.43
2023-03-15T17:46:37.526Z,9.90
2023-03-15T17:49:06.110Z,11.60
2023-03-15T17:51:34.728Z,11.73
2023-03-15T17:54:02.931Z,10.30
2023-03-15T17:56:31.453Z,9.77
2023-03-15T17:58:58.794Z,9.73
2023-03-15T18:01:28.115Z,11.00
2023-03-15T18:03:56.122Z,9.30
2023-03-15T18:06:23.939Z,8.53
2023-03-15T18:08:51.318Z,13.20
2023-03-15T18:11:26.347Z,11.97
2023-03-15T18:13:53.944Z,9.83
2023-03-15T18:16:21.817Z,10.10
2023-03-15T18:18:49.174Z,10.50
2023-03-15T18:21:21.501Z,10.63
2023-03-15T18:23:49.780Z,11.57
2023-03-15T18:26:17.170Z,9.30
2023-03-15T18:28:44.703Z,11.10
2023-03-15T18:31:13.767Z,9.63
2023-03-15T18:33:41.254Z,10.37
2023-03-15T18:36:08.700Z,11.03
2023-03-15T18:38:36.413Z,8.53
2023-03-15T18:41:03.850Z,10.07
2023-03-15T18:43:31.189Z,12.30
2023-03-15T18:45:58.569Z,9.37
2023-03-15T18:48:39.767Z,15.13
2023-03-15T18:50:56.389Z,8.80
2023-03-15T18:53:24.008Z,9.77
2023-03-15T18:55:52.006Z,10.20
2023-03-15T18:58:19.383Z,8.80
2023-03-15T19:00:48.360Z,12.50
2023-03-15T19:03:15.706Z,14.53
2023-03-15T19:05:43.027Z,11.20
2023-03-15T19:08:10.364Z,11.90
2023-03-15T19:10:37.713Z,12.13
2023-03-15T19:13:05.078Z,10.90
2023-03-15T19:15:32.378Z,12.43
2023-03-15T19:17:59.726Z,14.03
2023-03-15T19:20:27.034Z,8.87
2023-03-15T19:22:54.456Z,13.43
2023-03-15T19:25:21.791Z,12.73
2023-03-15T19:27:49.283Z,9.00
2023-03-15T19:30:18.770Z,14.60
2023-03-15T19:32:47.789Z,11.53
2023-03-15T19:35:15.285Z,10.30
2023-03-15T19:37:44.214Z,9.73
2023-03-15T19:40:12.172Z,13.23
2023-03-15T19:42:39.610Z,13.80
2023-03-15T19:45:07.731Z,9.90
2023-03-15T19:47:35.071Z,9.13
2023-03-15T19:50:02.974Z,11.87
2023-03-15T19:52:32.024Z,11.40
2023-03-15T19:55:01.124Z,10.67
2023-03-15T19:57:28.689Z,11.43
2023-03-15T19:59:55.991Z,10.30
2023-03-15T20:02:23.502Z,12.80
2023-03-15T20:04:50.931Z,10.90
2023-03-15T20:07:18.427Z,11.27
2023-03-15T20:09:45.765Z,14.37
2023-03-15T20:12:13.593Z,11.10
2023-03-15T20:14:41.078Z,15.93
2023-03-15T20:17:08.388Z,12.50
2023-03-15T20:19:36.124Z,9.57
2023-03-15T20:22:03.490Z,12.73
2023-03-15T20:24:30.910Z,11.23
2023-03-15T20:26:58.253Z,11.20
2023-03-15T20:29:25.568Z,9.87
2023-03-15T20:31:53.263Z,9.57
2023-03-15T20:34:21.930Z,11.87
2023-03-15T20:36:49.278Z,12.60
2023-03-15T20:39:18.195Z,9.77
2023-03-15T20:41:45.515Z,13.63
2023-03-15T20:44:12.900Z,9.43
2023-03-15T20:46:40.874Z,12.50
2023-03-15T20:49:08.450Z,11.30
2023-03-15T20:51:35.963Z,10.30
2023-03-15T20:54:03.309Z,11.47
2023-03-15T20:56:30.582Z,12.40
2023-03-15T20:58:57.901Z,10.60
2023-03-15T21:01:25.235Z,9.23
2023-03-15T21:03:54.261Z,11.50
2023-03-15T21:06:21.775Z,12.20
2023-03-15T21:08:49.296Z,9.10
2023-03-15T21:11:16.645Z,9.50
2023-03-15T21:13:44.016Z,8.60
2023-03-15T21:16:13.471Z,11.93
2023-03-15T21:18:42.565Z,10.33
2023-03-15T21:21:10.427Z,12.37
2023-03-15T21:23:38.366Z,12.57
2023-03-15T21:26:07.125Z,11.13
2023-03-15T21:28:34.460Z,9.33
2023-03-15T21:31:01.800Z,11.30
2023-03-15T21:33:30.877Z,9.00
2023-03-15T21:36:01.824Z,10.00
2023-03-15T21:38:31.210Z,9.97
2023-03-15T21:40:59.582Z,9.87
2023-03-15T21:43:28.600Z,11.50
2023-03-15T21:45:56.285Z,9.63
2023-03-15T21:48:23.664Z,9.50
2023-03-15T21:50:52.736Z,10.40
2023-03-15T21:53:21.586Z,10.53
2023-03-15T21:55:49.035Z,14.83
2023-03-15T21:58:16.696Z,9.17
2023-03-15T22:00:44.296Z,12.93
2023-03-15T22:03:13.393Z,8.60
2023-03-15T22:05:40.726Z,11.60
2023-03-15T22:08:08.091Z,10.50
2023-03-15T22:10:35.603Z,12.20
2023-03-15T22:13:03.223Z,10.40
2023-03-15T22:15:30.539Z,10.70
2023-03-15T22:17:57.812Z,10.10
2023-03-15T22:20:25.624Z,10.93
2023-03-15T22:22:53.092Z,11.70
2023-03-15T22:25:20.718Z,11.10
2023-03-15T22:27:48.056Z,9.50
2023-03-15T22:30:17.449Z,11.17
2023-03-15T22:32:44.871Z,10.90
2023-03-15T22:35:13.228Z,10.60
2023-03-15T22:37:41.081Z,10.30
2023-03-15T22:40:09.156Z,10.83
2023-03-15T22:42:36.483Z,8.87
2023-03-15T22:45:03.982Z,10.53
2023-03-15T22:47:31.271Z,12.07
2023-03-15T22:49:59.663Z,12.03
2023-03-15T22:52:27.732Z,10.10
2023-03-15T22:54:55.176Z,10.70
2023-03-15T22:57:22.611Z,11.37
2023-03-15T22:59:49.942Z,11.07
2023-03-15T23:02:17.282Z,11.47
2023-03-15T23:04:45.750Z,14.03
2023-03-15T23:07:13.889Z,11.70
2023-03-15T23:09:41.224Z,11.00
2023-03-15T23:12:08.899Z,12.40
2023-03-15T23:14:36.370Z,8.97
2023-03-15T23:17:04.075Z,9.00
2023-03-15T23:19:36.693Z,10.87
2023-03-15T23:22:04.908Z,8.97
2023-03-15T23:24:34.238Z,12.20
2023-03-15T23:27:03.355Z,10.30
2023-03-15T23:29:34.169Z,11.80
2023-03-15T23:32:01.306Z,9.70
2023-03-15T23:34:28.682Z,9.10
2023-03-15T23:36:56.019Z,12.23
2023-03-15T23:39:24.075Z,12.40
2023-03-15T23:41:51.406Z,8.30
2023-03-15T23:44:18.718Z,9.47
2023-03-15T23:46:46.409Z,12.60
2023-03-15T23:49:13.782Z,10.20
2023-03-15T23:51:42.746Z,9.10
2023-03-15T23:54:11.003Z,9.23
2023-03-15T23:56:38.266Z,10.30
2023-03-15T23:59:05.727Z,9.40
